createdAt,value
2023-05-19T00:01:00.304Z,3.17
2023-05-19T00:03:27.912Z,3.15
2023-05-19T00:05:55.939Z,3.22
2023-05-19T00:08:27.263Z,2.63
2023-05-19T00:10:54.627Z,2.83
2023-05-19T00:13:22.701Z,2.85
2023-05-19T00:15:51.070Z,3.78
2023-05-19T00:18:18.340Z,2.95
2023-05-19T00:20:45.651Z,3.10
2023-05-19T00:23:12.846Z,3.55
2023-05-19T00:25:40.018Z,3.17
2023-05-19T00:28:07.232Z,2.88
2023-05-19T00:30:34.556Z,2.60
2023-05-19T00:33:02.079Z,3.28
2023-05-19T00:35:29.338Z,2.50
2023-05-19T00:37:56.595Z,2.55
2023-05-19T00:40:25.069Z,2.80
2023-05-19T00:42:52.245Z,3.35
2023-05-19T00:45:19.503Z,2.87
2023-05-19T00:47:46.869Z,2.72
2023-05-19T00:50:14.147Z,3.63
2023-05-19T00:52:41.576Z,3.35
2023-05-19T00:55:09.778Z,2.47
2023-05-19T00:57:37.096Z,2.55
2023-05-19T01:00:05.860Z,2.97
2023-05-19T01:02:33.411Z,2.83
2023-05-19T01:05:00.728Z,3.22
2023-05-19T01:17:20.732Z,3.45
2023-05-19T01:27:28.179Z,3.33
2023-05-19T01:29:55.489Z,2.85
2023-05-19T01:34:50.185Z,3.58
2023-05-19T01:42:12.530Z,2.38
2023-05-19T01:44:39.720Z,2.75
2023-05-19T01:47:07.003Z,2.55
2023-05-19T01:49:35.007Z,3.10
2023-05-19T01:52:02.289Z,2.53
2023-05-19T01:54:29.468Z,4.18
2023-05-19T01:57:12.726Z,2.97
2023-05-19T01:59:49.396Z,3.73
2023-05-19T02:02:23.205Z,3.17
2023-05-19T02:07:36.267Z,2.30
2023-05-19T02:10:09.084Z,3.15
2023-05-19T02:12:38.243Z,2.90
2023-05-19T02:15:05.377Z,2.88
2023-05-19T02:17:33.957Z,3.30
2023-05-19T02:20:01.157Z,4.10
2023-05-19T02:22:28.320Z,5.93
2023-05-19T02:24:57.049Z,7.10
2023-05-19T04:52:32.496Z,1.88
2023-05-19T04:54:59.705Z,2.47
2023-05-19T05:39:18.391Z,0.85
2023-05-19T05:41:45.611Z,1.05
2023-05-19T05:44:12.827Z,0.90
2023-05-19T05:46:40.244Z,1.00
2023-05-19T05:49:08.404Z,1.20
2023-05-19T05:51:35.864Z,0.93
2023-05-19T05:54:03.424Z,1.17
2023-05-19T05:56:30.762Z,0.98
2023-05-19T05:58:58.711Z,1.40
2023-05-19T06:01:25.973Z,0.90
2023-05-19T06:03:53.162Z,1.08
2023-05-19T06:06:20.515Z,0.73
2023-05-19T06:08:47.760Z,0.88
2023-05-19T06:11:14.943Z,0.60
2023-05-19T06:13:42.255Z,0.63
2023-05-19T06:16:09.997Z,1.65
2023-05-19T06:18:37.507Z,0.68
2023-05-19T06:21:04.722Z,0.70
2023-05-19T06:23:31.947Z,0.75
2023-05-19T06:25:59.105Z,0.95
2023-05-19T06:28:26.249Z,0.90
2023-05-19T06:30:53.461Z,0.60
2023-05-19T06:33:20.609Z,0.90
2023-05-19T06:35:47.719Z,0.50
2023-05-19T06:38:14.885Z,0.85
2023-05-19T06:40:42.086Z,1.08
2023-05-19T06:43:09.293Z,0.77
2023-05-19T06:45:36.417Z,1.42
2023-05-19T06:48:03.931Z,0.80
2023-05-19T06:50:31.487Z,1.00
2023-05-19T06:52:59.008Z,1.05
2023-05-19T06:55:26.316Z,0.85
2023-05-19T06:57:53.533Z,0.65
2023-05-19T07:00:23.085Z,0.80
2023-05-19T07:02:51.342Z,0.82
2023-05-19T07:05:18.633Z,1.17
2023-05-19T07:07:45.787Z,0.77
2023-05-19T07:10:12.933Z,0.70
2023-05-19T07:12:40.108Z,0.90
2023-05-19T07:15:07.534Z,0.50
2023-05-19T07:17:34.742Z,0.93
2023-05-19T07:20:04.195Z,0.60
2023-05-19T07:22:31.473Z,0.70
2023-05-19T07:24:58.681Z,0.90
2023-05-19T07:27:25.835Z,0.75
2023-05-19T07:29:53.115Z,0.60
2023-05-19T07:32:20.405Z,0.60
2023-05-19T07:34:47.717Z,0.80
2023-05-19T07:37:16.033Z,0.60
2023-05-19T07:39:43.269Z,0.55
2023-05-19T07:42:11.047Z,0.60
2023-05-19T15:02:46.102Z,0.70
2023-05-19T15:05:13.372Z,0.60
2023-05-19T15:07:40.538Z,0.40
2023-05-19T15:10:07.939Z,0.73
2023-05-19T15:12:35.078Z,0.60
2023-05-19T15:15:02.259Z,0.68
2023-05-19T15:17:29.436Z,1.00
2023-05-19T15:19:56.633Z,0.80
2023-05-19T15:22:23.796Z,1.02
2023-05-19T15:24:50.995Z,0.95
2023-05-19T15:27:18.139Z,1.42
2023-05-19T15:29:45.520Z,0.95
2023-05-19T15:32:12.737Z,0.70
2023-05-19T15:34:39.912Z,1.00
2023-05-19T15:37:07.105Z,0.82
2023-05-19T15:39:34.882Z,0.80
2023-05-19T15:42:02.123Z,0.80
2023-05-19T15:44:30.028Z,0.40
2023-05-19T15:46:57.201Z,0.60
